Day Off — PE8774 — position and weather

sailwx.info

Track history (hours):
 
Tides and Currents Weather Stations Pressure Air Temp Water Temp Dewpoint Dewpoint Depression Visibility Wind Speed Wind Dir Waves Ship Positions

Day Off

Last reported at 2017-Oct-02 02:00 UTC. Time now 2017-Oct-17 17:15 UTC.
Position N 52°26' E 004°46'.
Warning: this ship's position is 15 days out of date.

Length 12 m.

Type: Sailing vessel. MMSI: 244030712.

Date/timePositionNaut miles runAvg speedWind from/ knotsBaromVisibWave heightAir tempDewpointWater temp
2017-Oct-02 02:00N 52°26' E 004°46'2 4.5
2017-Oct-02 01:29N 52°26' E 004°42'2 4.6
2017-Oct-02 01:00N 52°28' E 004°39'2 4.2
2017-Oct-02 00:30N 52°28' E 004°35'0 0.1
2017-Oct-02 00:00N 52°28' E 004°35'1 2.3
2017-Oct-01 23:30N 52°28' E 004°34'1 3.0
2017-Oct-01 23:00N 52°28' E 004°31'97 6.2
2017-Oct-01 07:12N 51°22' E 002°34'2 6.5
2017-Oct-01 06:58N 51°21' E 002°32'3 6.2
2017-Oct-01 06:30N 51°19' E 002°29'3 6.6
2017-Oct-01 06:00N 51°17' E 002°25'16 5.4
2017-Oct-01 02:56N 51°08' E 002°03'  
Track history (hours):
 
Tides and Currents Weather Stations Pressure Air Temp Water Temp Dewpoint Dewpoint Depression Visibility Wind Speed Wind Dir Waves Ship Positions

Day Off

Last reported at 2017-Oct-02 02:00 UTC. Time now 2017-Oct-17 17:15 UTC.
Position N 52°26' E 004°46'.
Warning: this ship's position is 15 days out of date.

Length 12 m.

Type: Sailing vessel. MMSI: 244030712.

Date/timePositionNaut miles runAvg speedWind from/ knotsBaromVisibWave heightAir tempDewpointWater temp
2017-Oct-02 02:00N 52°26' E 004°46'2 4.5
2017-Oct-02 01:29N 52°26' E 004°42'2 4.6
2017-Oct-02 01:00N 52°28' E 004°39'2 4.2
2017-Oct-02 00:30N 52°28' E 004°35'0 0.1
2017-Oct-02 00:00N 52°28' E 004°35'1 2.3
2017-Oct-01 23:30N 52°28' E 004°34'1 3.0
2017-Oct-01 23:00N 52°28' E 004°31'97 6.2
2017-Oct-01 07:12N 51°22' E 002°34'2 6.5
2017-Oct-01 06:58N 51°21' E 002°32'3 6.2
2017-Oct-01 06:30N 51°19' E 002°29'3 6.6
2017-Oct-01 06:00N 51°17' E 002°25'16 5.4
2017-Oct-01 02:56N 51°08' E 002°03'  

Dump ship's entire track history